createdAt,value
2022-11-17T00:01:22.428Z,96123.88
2022-11-17T00:03:49.358Z,96115.94
2022-11-17T00:06:15.714Z,96115.72
2022-11-17T00:08:43.308Z,96116.22
2022-11-17T00:11:10.591Z,96111.75
2022-11-17T00:13:37.236Z,96098.50
2022-11-17T00:16:03.661Z,96113.13
2022-11-17T00:18:29.964Z,96111.31
2022-11-17T00:20:56.367Z,96115.56
2022-11-17T00:23:22.663Z,96111.81
2022-11-17T00:25:48.991Z,96108.66
2022-11-17T00:28:15.316Z,96110.28
2022-11-17T00:30:43.909Z,96097.53
2022-11-17T00:33:10.399Z,96099.16
2022-11-17T00:35:36.731Z,96087.47
2022-11-17T00:38:03.055Z,96089.09
2022-11-17T00:40:29.479Z,96081.66
2022-11-17T00:42:56.074Z,96073.16
2022-11-17T00:45:22.366Z,96070.53
2022-11-17T00:47:48.694Z,96066.59
2022-11-17T00:50:15.134Z,96060.22
2022-11-17T00:52:41.369Z,96063.44
2022-11-17T00:55:07.854Z,96058.38
2022-11-17T00:57:34.593Z,96041.41
2022-11-17T01:00:00.937Z,96043.81
2022-11-17T01:02:27.544Z,96036.41
2022-11-17T01:04:53.849Z,96036.16
2022-11-17T01:07:20.209Z,96032.44
2022-11-17T01:09:46.626Z,96022.09
2022-11-17T01:12:12.949Z,96040.41
2022-11-17T01:14:39.371Z,96025.03
2022-11-17T01:17:05.738Z,96027.44
2022-11-17T01:19:32.990Z,96031.44
2022-11-17T01:21:59.584Z,96031.69
2022-11-17T01:24:26.080Z,96020.03
2022-11-17T01:26:52.359Z,96022.16
2022-11-17T01:29:18.682Z,96014.75
2022-11-17T01:31:45.157Z,96014.22
2022-11-17T01:34:11.819Z,96018.22
2022-11-17T01:36:38.109Z,96007.06
2022-11-17T01:39:04.869Z,96002.31
2022-11-17T01:41:31.494Z,95993.81
2022-11-17T01:43:57.782Z,95991.69
2022-11-17T01:46:24.073Z,95976.84
2022-11-17T01:48:50.393Z,95972.09
2022-11-17T01:51:16.999Z,95963.59
2022-11-17T01:53:43.544Z,95974.47
2022-11-17T01:56:09.926Z,95959.09
2022-11-17T01:58:36.188Z,95955.09
2022-11-17T02:01:07.249Z,95963.63
2022-11-17T02:03:33.932Z,95943.72
2022-11-17T02:06:00.920Z,95941.59
2022-11-17T02:08:27.191Z,95941.09
2022-11-17T02:10:54.372Z,95931.78
2022-11-17T02:13:21.652Z,95934.72
2022-11-17T02:15:48.081Z,95939.00
2022-11-17T02:18:14.380Z,95919.09
2022-11-17T02:20:40.624Z,95919.66
2022-11-17T02:23:07.961Z,95913.81
2022-11-17T02:25:37.773Z,95921.25
2022-11-17T02:28:04.081Z,95906.69
2022-11-17T02:30:31.348Z,95911.72
2022-11-17T02:32:57.612Z,95916.50
2022-11-17T02:35:24.013Z,95913.59
2022-11-17T02:37:51.093Z,95904.59
2022-11-17T02:40:17.375Z,95907.25
2022-11-17T02:42:43.620Z,95903.53
2022-11-17T02:45:09.936Z,95911.22
2022-11-17T02:47:36.615Z,95903.53
2022-11-17T02:50:03.835Z,95885.53
2022-11-17T02:52:30.709Z,95892.16
2022-11-17T02:54:57.079Z,95890.84
2022-11-17T02:57:24.000Z,95886.09
2022-11-17T02:59:50.333Z,95882.09
2022-11-17T03:02:16.702Z,95881.56
2022-11-17T03:04:43.203Z,95879.47
2022-11-17T03:07:09.545Z,95881.31
2022-11-17T03:09:36.435Z,95863.03
2022-11-17T03:12:02.662Z,95874.72
2022-11-17T03:14:29.053Z,95868.88
2022-11-17T03:16:55.419Z,95864.09
2022-11-17T03:19:21.944Z,95867.03
2022-11-17T03:21:48.226Z,95869.16
2022-11-17T03:24:14.918Z,95858.81
2022-11-17T03:26:41.228Z,95853.25
2022-11-17T03:29:08.120Z,95842.94
2022-11-17T03:31:35.796Z,95844.28
2022-11-17T03:34:02.149Z,95843.75
2022-11-17T03:36:28.432Z,95841.63
2022-11-17T03:38:54.720Z,95869.44
2022-11-17T03:41:21.126Z,95848.53
2022-11-17T03:43:47.464Z,95875.56
2022-11-17T03:46:13.830Z,95838.72
2022-11-17T03:48:40.173Z,95847.16
2022-11-17T03:51:06.956Z,95833.66
2022-11-17T03:53:34.912Z,95845.59
2022-11-17T03:56:01.492Z,95839.50
2022-11-17T03:58:27.795Z,95832.09
2022-11-17T04:00:54.070Z,95819.38
2022-11-17T04:03:20.440Z,95826.81
2022-11-17T04:05:47.212Z,95826.28
2022-11-17T04:08:13.497Z,95825.75
2022-11-17T04:10:39.872Z,95828.66
2022-11-17T04:13:06.128Z,95814.09
2022-11-17T04:15:32.458Z,95815.44
2022-11-17T04:17:58.808Z,95800.84
2022-11-17T04:20:25.113Z,95817.00
2022-11-17T04:22:51.749Z,95792.66
2022-11-17T04:25:18.260Z,95795.84
2022-11-17T04:27:44.576Z,95777.06
2022-11-17T04:30:10.965Z,95776.25
2022-11-17T04:32:37.233Z,95779.44
2022-11-17T04:35:09.815Z,95780.47
2022-11-17T04:37:36.162Z,95770.44
2022-11-17T04:40:02.527Z,95775.19
2022-11-17T04:42:28.912Z,95765.94
2022-11-17T04:44:55.287Z,95759.06
2022-11-17T04:47:22.295Z,95760.38
2022-11-17T04:49:48.644Z,95757.22
2022-11-17T04:52:15.139Z,95763.03
2022-11-17T04:54:41.453Z,95762.50
2022-11-17T04:57:07.919Z,95768.84
2022-11-17T04:59:34.979Z,95757.72
2022-11-17T05:02:05.965Z,95774.66
2022-11-17T05:04:32.699Z,95791.63
2022-11-17T05:06:59.015Z,95782.34
2022-11-17T05:09:25.308Z,95779.16
2022-11-17T05:11:51.604Z,95778.63
2022-11-17T05:14:17.969Z,95790.53
2022-11-17T05:16:44.286Z,95778.34
2022-11-17T05:19:10.679Z,95777.59
2022-11-17T05:24:21.704Z,95762.50
2022-11-17T05:26:48.649Z,95744.25
2022-11-17T05:29:15.862Z,95756.16
2022-11-17T05:31:42.197Z,95761.94
2022-11-17T05:34:08.873Z,95754.28
2022-11-17T05:36:35.229Z,95753.75
2022-11-17T05:39:02.573Z,95764.59
2022-11-17T05:41:28.960Z,95765.66
2022-11-17T05:43:55.300Z,95772.25
2022-11-17T05:46:22.203Z,95769.06
2022-11-17T05:48:49.857Z,95769.34
2022-11-17T05:51:16.174Z,95769.59
2022-11-17T05:53:42.553Z,95767.22
2022-11-17T05:56:08.917Z,95770.94
2022-11-17T05:58:35.985Z,95779.91
2022-11-17T06:01:03.046Z,95766.16
2022-11-17T06:03:29.764Z,95776.72
2022-11-17T06:05:56.069Z,95764.59
2022-11-17T06:08:22.381Z,95756.13
2022-11-17T06:10:48.669Z,95750.81
2022-11-17T06:13:15.302Z,95748.44
2022-11-17T06:15:41.994Z,95742.63
2022-11-17T06:18:08.543Z,95733.13
2022-11-17T06:20:34.805Z,95720.94
2022-11-17T06:23:01.186Z,95722.28
2022-11-17T06:25:27.499Z,95711.16
2022-11-17T06:27:54.224Z,95703.50
2022-11-17T06:30:20.508Z,95700.31
2022-11-17T06:32:47.063Z,95694.22
2022-11-17T06:35:13.865Z,95688.38
2022-11-17T06:37:40.204Z,95680.72
2022-11-17T06:40:06.556Z,95697.91
2022-11-17T06:42:33.381Z,95688.66
2022-11-17T06:44:59.738Z,95675.69
2022-11-17T06:47:26.057Z,95668.03
2022-11-17T06:49:53.618Z,95673.06
2022-11-17T06:52:20.304Z,95674.09
2022-11-17T06:54:46.639Z,95677.81
2022-11-17T06:57:12.904Z,95677.25
2022-11-17T06:59:39.171Z,95673.06
2022-11-17T07:02:05.513Z,95674.34
2022-11-17T07:04:32.234Z,95659.56
2022-11-17T07:07:01.556Z,95666.97
2022-11-17T07:09:28.521Z,95662.97
2022-11-17T07:11:54.769Z,95666.97
2022-11-17T07:14:21.173Z,95661.41
2022-11-17T07:16:47.557Z,95650.09
2022-11-17T07:19:14.905Z,95654.59
2022-11-17T07:21:41.260Z,95656.16
2022-11-17T07:24:07.651Z,95660.34
2022-11-17T07:26:34.430Z,95668.22
2022-11-17T07:29:00.809Z,95674.53
2022-11-17T07:31:33.403Z,95685.09
2022-11-17T07:33:59.709Z,95693.06
2022-11-17T07:36:26.386Z,95693.28
2022-11-17T07:38:52.663Z,95698.81
2022-11-17T07:41:20.646Z,95696.38
2022-11-17T07:43:47.011Z,95689.19
2022-11-17T07:46:13.485Z,95681.22
2022-11-17T07:48:40.075Z,95676.16
2022-11-17T07:51:06.478Z,95672.69
2022-11-17T07:53:33.419Z,95680.59
2022-11-17T07:55:59.821Z,95688.53
2022-11-17T07:58:26.362Z,95676.59
2022-11-17T08:00:52.744Z,95684.78
2022-11-17T08:03:19.460Z,95684.50
2022-11-17T08:05:48.972Z,95685.56
2022-11-17T08:08:15.624Z,95697.19
2022-11-17T08:10:42.298Z,95698.22
2022-11-17T08:13:08.582Z,95703.19
2022-11-17T08:15:35.147Z,95698.38
2022-11-17T08:18:01.492Z,95698.84
2022-11-17T08:20:27.813Z,95697.72
2022-11-17T08:22:54.822Z,95694.47
2022-11-17T08:25:21.147Z,95681.88
2022-11-17T08:27:47.487Z,95688.59
2022-11-17T08:30:13.832Z,95682.63
2022-11-17T08:32:40.854Z,95672.88
2022-11-17T08:35:07.417Z,95684.63
2022-11-17T08:37:33.740Z,95681.81
2022-11-17T08:40:00.057Z,95669.09
2022-11-17T08:42:26.356Z,95676.09
2022-11-17T08:44:52.689Z,95668.47
2022-11-17T08:47:18.955Z,95666.97
2022-11-17T08:49:45.434Z,95659.63
2022-11-17T08:52:12.323Z,95665.59
2022-11-17T08:54:39.631Z,95667.50
2022-11-17T08:57:06.380Z,95661.25
2022-11-17T08:59:32.706Z,95660.59
2022-11-17T09:01:59.260Z,95654.09
2022-11-17T09:04:25.556Z,95651.25
2022-11-17T09:06:51.902Z,95658.94
2022-11-17T09:09:18.286Z,95654.44
2022-11-17T09:11:44.582Z,95649.41
2022-11-17T09:14:11.813Z,95637.44
2022-11-17T09:16:38.252Z,95630.56
2022-11-17T09:19:04.610Z,95628.19
2022-11-17T09:21:31.763Z,95633.78
2022-11-17T09:23:58.066Z,95633.56
2022-11-17T09:26:24.515Z,95637.13
2022-11-17T09:28:50.891Z,95642.84
2022-11-17T09:31:17.458Z,95646.91
2022-11-17T09:33:44.320Z,95639.03
2022-11-17T09:36:10.604Z,95634.09
2022-11-17T09:38:37.496Z,95635.16
2022-11-17T09:41:04.295Z,95630.91
2022-11-17T09:43:30.605Z,95632.78
2022-11-17T09:45:57.289Z,95630.91
2022-11-17T09:48:40.607Z,95636.25
2022-11-17T09:51:07.284Z,95633.88
2022-11-17T09:53:33.764Z,95633.38
2022-11-17T09:56:00.276Z,95638.69
2022-11-17T09:58:26.796Z,95637.13
2022-11-17T10:00:53.072Z,95635.53
2022-11-17T10:03:19.401Z,95628.34
2022-11-17T10:05:45.699Z,95627.25
2022-11-17T10:08:11.976Z,95626.94
2022-11-17T10:10:38.283Z,95626.66
2022-11-17T10:13:05.063Z,95635.16
2022-11-17T10:15:31.314Z,95629.53
2022-11-17T10:17:58.409Z,95635.84
2022-11-17T10:20:25.295Z,95630.53
2022-11-17T10:22:51.544Z,95645.44
2022-11-17T10:25:17.859Z,95637.44
2022-11-17T10:27:44.222Z,95638.22
2022-11-17T10:30:10.789Z,95630.25
2022-11-17T10:32:42.719Z,95632.13
2022-11-17T10:35:11.704Z,95634.78
2022-11-17T10:37:38.017Z,95634.78
2022-11-17T10:40:04.295Z,95628.66
2022-11-17T10:42:31.472Z,95631.63
2022-11-17T10:44:58.410Z,95634.59
2022-11-17T10:47:25.401Z,95633.78
2022-11-17T10:49:52.404Z,95637.25
2022-11-17T10:52:18.675Z,95626.88
2022-11-17T10:54:45.029Z,95628.47
2022-11-17T10:57:11.297Z,95635.06
2022-11-17T10:59:37.624Z,95634.78
2022-11-17T11:02:04.056Z,95635.56
2022-11-17T11:04:30.407Z,95639.31
2022-11-17T11:06:56.749Z,95636.66
2022-11-17T11:09:23.085Z,95627.38
2022-11-17T11:11:49.651Z,95633.78
2022-11-17T11:14:16.773Z,95636.44
2022-11-17T11:16:47.784Z,95629.25
2022-11-17T11:19:15.305Z,95629.25
2022-11-17T11:21:41.738Z,95630.03
2022-11-17T11:24:08.030Z,95633.78
2022-11-17T11:26:34.435Z,95632.69
2022-11-17T11:29:01.386Z,95622.84
2022-11-17T11:31:27.701Z,95623.63
2022-11-17T11:33:54.017Z,95621.75
2022-11-17T11:36:20.403Z,95621.47
2022-11-17T11:38:46.709Z,95623.56
2022-11-17T11:41:16.117Z,95613.41
2022-11-17T11:43:42.405Z,95619.22
2022-11-17T11:46:08.656Z,95619.22
2022-11-17T11:48:35.096Z,95586.94
2022-11-17T11:51:02.299Z,95612.53
2022-11-17T11:53:28.717Z,95608.03
2022-11-17T11:55:55.575Z,95605.88
2022-11-17T11:58:21.868Z,95611.69
2022-11-17T12:00:48.369Z,95622.34
2022-11-17T12:03:15.291Z,95614.34
2022-11-17T12:05:42.258Z,95622.81
2022-11-17T12:08:10.894Z,95626.56
2022-11-17T12:10:37.480Z,95618.09
2022-11-17T12:13:04.273Z,95615.72
2022-11-17T12:15:30.723Z,95627.16
2022-11-17T12:17:57.155Z,95627.94
2022-11-17T12:20:23.425Z,95629.53
2022-11-17T12:22:49.823Z,95634.06
2022-11-17T12:25:16.197Z,95641.75
2022-11-17T12:27:42.756Z,95644.69
2022-11-17T12:30:09.260Z,95647.38
2022-11-17T12:32:39.378Z,95645.50
2022-11-17T12:35:05.632Z,95646.31
2022-11-17T12:37:31.967Z,95647.88
2022-11-17T12:39:58.236Z,95654.75
2022-11-17T12:42:24.860Z,95651.03
2022-11-17T12:44:51.195Z,95657.16
2022-11-17T12:47:17.847Z,95656.06
2022-11-17T12:49:44.201Z,95664.84
2022-11-17T12:52:10.468Z,95663.75
2022-11-17T12:54:37.421Z,95666.31
2022-11-17T12:57:03.698Z,95661.81
2022-11-17T12:59:30.038Z,95667.94
2022-11-17T13:01:56.435Z,95672.16
2022-11-17T13:04:22.847Z,95673.16
2022-11-17T13:06:49.841Z,95683.22
2022-11-17T13:09:16.409Z,95678.09
2022-11-17T13:11:43.226Z,95675.94
2022-11-17T13:14:10.038Z,95682.53
2022-11-17T13:16:36.810Z,95673.47
2022-11-17T13:19:03.173Z,95679.00
2022-11-17T13:21:29.555Z,95674.19
2022-11-17T13:23:56.423Z,95681.38
2022-11-17T13:26:22.669Z,95677.81
2022-11-17T13:28:49.331Z,95675.34
2022-11-17T13:31:16.382Z,95674.28
2022-11-17T13:33:42.677Z,95682.78
2022-11-17T13:36:08.920Z,95676.34
2022-11-17T13:38:35.374Z,95656.31
2022-11-17T13:41:01.799Z,95685.66
2022-11-17T13:43:28.472Z,95679.22
2022-11-17T13:45:54.849Z,95672.91
2022-11-17T13:48:21.211Z,95673.59
2022-11-17T13:50:47.481Z,95685.84
2022-11-17T13:53:13.761Z,95686.63
2022-11-17T13:55:40.053Z,95681.28
2022-11-17T13:58:06.366Z,95682.38
2022-11-17T14:00:32.803Z,95681.28
2022-11-17T14:02:59.043Z,95688.78
2022-11-17T14:05:25.390Z,95686.13
2022-11-17T14:07:52.358Z,95681.88
2022-11-17T14:10:18.838Z,95685.34
2022-11-17T14:12:45.903Z,95687.72
2022-11-17T14:15:12.186Z,95684.25
2022-11-17T14:17:38.571Z,95693.06
2022-11-17T14:20:05.020Z,95691.44
2022-11-17T14:22:32.106Z,95696.00
2022-11-17T14:24:58.481Z,95696.31
2022-11-17T14:27:24.815Z,95704.31
2022-11-17T14:29:51.277Z,95696.56
2022-11-17T14:32:17.908Z,95705.38
2022-11-17T14:34:44.215Z,95711.00
2022-11-17T14:37:11.650Z,95714.75
2022-11-17T14:39:38.301Z,95715.03
2022-11-17T14:42:04.647Z,95715.81
2022-11-17T14:44:30.984Z,95717.69
2022-11-17T14:46:57.289Z,95715.81
2022-11-17T14:49:23.569Z,95722.75
2022-11-17T14:51:49.876Z,95716.31
2022-11-17T14:54:17.798Z,95716.81
2022-11-17T14:56:44.551Z,95715.72
2022-11-17T14:59:10.822Z,95715.72
2022-11-17T15:01:39.530Z,95717.03
2022-11-17T15:04:21.095Z,95714.38
2022-11-17T15:06:52.315Z,95721.25
2022-11-17T15:09:19.744Z,95722.56
2022-11-17T15:11:46.981Z,95721.09
2022-11-17T15:14:13.681Z,95721.78
2022-11-17T15:16:40.375Z,95732.28
2022-11-17T15:19:06.831Z,95728.03
2022-11-17T15:21:33.581Z,95737.63
2022-11-17T15:23:59.848Z,95750.19
2022-11-17T15:26:26.258Z,95740.06
2022-11-17T15:28:52.522Z,95746.78
2022-11-17T15:31:18.942Z,95743.44
2022-11-17T15:33:45.969Z,95745.88
2022-11-17T15:36:12.401Z,95748.63
2022-11-17T15:38:38.734Z,95746.84
2022-11-17T15:41:04.987Z,95748.81
2022-11-17T15:43:31.372Z,95751.84
2022-11-17T15:45:57.675Z,95748.44
2022-11-17T15:48:24.012Z,95754.16
2022-11-17T15:50:51.308Z,95758.81
2022-11-17T15:53:17.550Z,95750.53
2022-11-17T15:55:43.854Z,95761.28
2022-11-17T15:58:10.206Z,95764.00
2022-11-17T16:00:37.597Z,95765.47
2022-11-17T16:03:03.867Z,95760.63
2022-11-17T16:05:30.478Z,95763.47
2022-11-17T16:07:56.788Z,95767.09
2022-11-17T16:10:23.043Z,95763.34
2022-11-17T16:12:49.290Z,95767.91
2022-11-17T16:15:15.666Z,95764.91
2022-11-17T16:17:41.931Z,95769.47
2022-11-17T16:20:08.335Z,95771.97
2022-11-17T16:22:35.523Z,95770.69
2022-11-17T16:25:01.867Z,95767.84
2022-11-17T16:27:28.554Z,95768.78
2022-11-17T16:29:55.044Z,95775.00
2022-11-17T16:32:21.455Z,95766.00
2022-11-17T16:34:47.748Z,95768.03
2022-11-17T16:37:14.734Z,95768.63
2022-11-17T16:39:41.317Z,95771.44
2022-11-17T16:42:07.582Z,95767.00
2022-11-17T16:44:34.184Z,95766.81
2022-11-17T16:47:00.561Z,95769.00
2022-11-17T16:49:26.817Z,95769.13
2022-11-17T16:51:53.111Z,95761.22
2022-11-17T16:54:22.633Z,95763.41
2022-11-17T16:56:48.799Z,95757.88
2022-11-17T16:59:16.267Z,95755.03
2022-11-17T17:01:43.136Z,95757.19
2022-11-17T17:04:09.477Z,95760.47
2022-11-17T17:06:36.340Z,95757.31
2022-11-17T17:09:02.665Z,95764.03
2022-11-17T17:11:28.962Z,95751.00
2022-11-17T17:13:55.936Z,95752.66
2022-11-17T17:16:22.194Z,95761.25
2022-11-17T17:18:48.612Z,95767.22
2022-11-17T17:21:16.261Z,95763.53
2022-11-17T17:23:42.588Z,95774.53
2022-11-17T17:26:08.973Z,95783.94
2022-11-17T17:28:35.276Z,95785.63
2022-11-17T17:31:01.658Z,95786.22
2022-11-17T17:33:28.196Z,95781.47
2022-11-17T17:35:54.556Z,95783.66
2022-11-17T17:38:20.940Z,95786.59
2022-11-17T17:40:47.264Z,95788.50
2022-11-17T17:43:13.602Z,95779.69
2022-11-17T17:45:40.401Z,95789.47
2022-11-17T17:48:06.697Z,95797.84
2022-11-17T17:50:33.016Z,95809.91
2022-11-17T17:52:59.684Z,95812.88
2022-11-17T17:55:27.045Z,95813.47
2022-11-17T17:57:54.049Z,95809.78
2022-11-17T18:00:20.492Z,95807.69
2022-11-17T18:02:47.060Z,95811.19
2022-11-17T18:05:14.016Z,95815.03
2022-11-17T18:07:40.420Z,95820.13
2022-11-17T18:10:07.560Z,95828.03
2022-11-17T18:12:34.032Z,95818.00
2022-11-17T18:15:00.384Z,95821.97
2022-11-17T18:17:26.701Z,95817.59
2022-11-17T18:19:53.073Z,95818.38
2022-11-17T18:22:19.466Z,95825.59
2022-11-17T18:24:46.097Z,95816.19
2022-11-17T18:27:13.037Z,95822.34
2022-11-17T18:29:39.625Z,95813.53
2022-11-17T18:32:06.065Z,95811.16
2022-11-17T18:34:33.251Z,95807.50
2022-11-17T18:36:59.654Z,95799.00
2022-11-17T18:39:26.031Z,95808.44
2022-11-17T18:41:52.344Z,95805.56
2022-11-17T18:44:18.960Z,95795.78
2022-11-17T18:46:45.340Z,95795.59
2022-11-17T18:49:11.924Z,95798.88
2022-11-17T18:51:38.228Z,95796.81
2022-11-17T18:54:04.560Z,95803.84
2022-11-17T18:56:30.925Z,95799.75
2022-11-17T18:58:57.827Z,95800.94
2022-11-17T19:01:24.401Z,95801.53
2022-11-17T19:03:50.733Z,95804.84
2022-11-17T19:06:17.113Z,95804.91
2022-11-17T19:08:43.984Z,95804.72
2022-11-17T19:11:10.616Z,95801.41
2022-11-17T19:13:36.899Z,95796.16
2022-11-17T19:16:03.228Z,95793.59
2022-11-17T19:18:29.575Z,95800.66
2022-11-17T19:20:55.942Z,95795.88
2022-11-17T19:23:22.240Z,95796.47
2022-11-17T19:25:48.548Z,95797.88
2022-11-17T19:28:15.020Z,95798.13
2022-11-17T19:30:41.975Z,95795.28
2022-11-17T19:33:08.345Z,95797.47
2022-11-17T19:35:34.979Z,95800.41
2022-11-17T19:38:02.141Z,95801.81
2022-11-17T19:40:28.517Z,95800.03
2022-11-17T19:42:54.821Z,95802.22
2022-11-17T19:45:21.229Z,95808.16
2022-11-17T19:47:47.495Z,95807.69
2022-11-17T19:50:13.889Z,95806.38
2022-11-17T19:52:40.981Z,95812.31
2022-11-17T19:55:08.058Z,95801.66
2022-11-17T19:57:34.611Z,95808.56
2022-11-17T20:00:00.944Z,95810.91
2022-11-17T20:02:28.247Z,95807.06
2022-11-17T20:04:54.729Z,95818.91
2022-11-17T20:07:21.180Z,95822.16
2022-11-17T20:09:47.474Z,95815.88
2022-11-17T20:12:13.984Z,95825.53
2022-11-17T20:14:40.279Z,95827.50
2022-11-17T20:17:07.241Z,95831.81
2022-11-17T20:19:34.055Z,95834.09
2022-11-17T20:22:00.409Z,95844.06
2022-11-17T20:24:27.667Z,95851.66
2022-11-17T20:26:54.286Z,95854.69
2022-11-17T20:29:20.680Z,95856.47
2022-11-17T20:31:47.446Z,95855.88
2022-11-17T20:34:13.746Z,95861.41
2022-11-17T20:36:40.044Z,95864.88
2022-11-17T20:39:06.553Z,95864.38
2022-11-17T20:41:33.343Z,95868.44
2022-11-17T20:43:59.782Z,95861.81
2022-11-17T20:46:26.268Z,95867.75
2022-11-17T20:48:53.117Z,95869.16
2022-11-17T20:51:19.403Z,95878.88
2022-11-17T20:53:45.797Z,95878.97
2022-11-17T20:56:12.138Z,95879.91
2022-11-17T20:58:38.512Z,95887.41
2022-11-17T21:01:06.191Z,95889.59
2022-11-17T21:03:32.520Z,95889.09
2022-11-17T21:05:59.612Z,95896.72
2022-11-17T21:08:26.041Z,95897.94
2022-11-17T21:10:52.335Z,95890.00
2022-11-17T21:13:18.689Z,95891.41
2022-11-17T21:15:45.050Z,95895.44
2022-11-17T21:18:13.223Z,95894.50
2022-11-17T21:20:43.268Z,95890.81
2022-11-17T21:23:13.532Z,95894.09
2022-11-17T21:25:41.337Z,95891.50
2022-11-17T21:28:08.921Z,95884.06
2022-11-17T21:30:36.886Z,95888.91
2022-11-17T21:33:06.887Z,95890.00
2022-11-17T21:35:33.806Z,95897.81
2022-11-17T21:38:04.100Z,95898.13
2022-11-17T21:40:33.201Z,95897.63
2022-11-17T21:43:01.486Z,95911.25
2022-11-17T21:45:28.916Z,95903.56
2022-11-17T21:47:59.381Z,95906.53
2022-11-17T21:50:34.169Z,95908.69
2022-11-17T21:53:06.896Z,95903.66
2022-11-17T21:55:35.418Z,95909.00
2022-11-17T21:58:03.093Z,95902.06
2022-11-17T22:00:34.351Z,95909.56
2022-11-17T22:03:19.477Z,95914.91
2022-11-17T22:05:52.014Z,95914.13
2022-11-17T22:08:19.872Z,95906.41
2022-11-17T22:10:48.579Z,95915.50
2022-11-17T22:13:25.010Z,95914.91
2022-11-17T22:15:59.320Z,95928.75
2022-11-17T22:21:13.190Z,95933.88
2022-11-17T22:23:42.255Z,95938.56
2022-11-17T22:26:08.637Z,95956.56
2022-11-17T22:28:36.554Z,95950.56
2022-11-17T22:31:13.535Z,95955.19
2022-11-17T22:33:46.967Z,95952.94
2022-11-17T22:36:14.782Z,95960.22
2022-11-17T22:38:43.999Z,95962.53
2022-11-17T22:41:12.413Z,95958.16
2022-11-17T22:43:39.047Z,95958.84
2022-11-17T22:46:05.871Z,95967.34
2022-11-17T22:48:35.767Z,95966.75
2022-11-17T22:51:02.670Z,95961.41
2022-11-17T22:53:29.624Z,95964.06
2022-11-17T22:55:56.589Z,95958.72
2022-11-17T22:58:24.899Z,95956.16
2022-11-17T23:00:58.882Z,95951.72
2022-11-17T23:03:27.269Z,95946.75
2022-11-17T23:05:54.036Z,95948.78
2022-11-17T23:08:20.367Z,95937.69
2022-11-17T23:10:46.658Z,95950.38
2022-11-17T23:13:13.284Z,95942.25
2022-11-17T23:15:39.692Z,95951.75
2022-11-17T23:18:06.539Z,95951.91
2022-11-17T23:20:33.193Z,95946.97
2022-11-17T23:22:59.433Z,95946.56
2022-11-17T23:25:26.406Z,95946.66
2022-11-17T23:27:53.261Z,95949.91
2022-11-17T23:30:19.588Z,95953.97
2022-11-17T23:32:46.046Z,95954.25
2022-11-17T23:35:13.741Z,95960.97
2022-11-17T23:37:40.094Z,95950.88
2022-11-17T23:40:06.481Z,95965.09
2022-11-17T23:42:35.404Z,95960.13
2022-11-17T23:45:03.684Z,95962.88
2022-11-17T23:47:30.585Z,95958.72
2022-11-17T23:49:56.842Z,95961.47
2022-11-17T23:52:24.195Z,95957.31
2022-11-17T23:54:50.604Z,95960.84
2022-11-17T23:57:17.623Z,95962.78
2022-11-17T23:59:44.750Z,95959.13
